createdAt,value
2022-09-04T00:00:03.437Z,1006.10
2022-09-04T00:01:03.863Z,1006.16
2022-09-04T00:02:03.178Z,1006.12
2022-09-04T00:03:02.719Z,1006.17
2022-09-04T00:04:02.971Z,1006.18
2022-09-04T00:05:03.092Z,1006.21
2022-09-04T00:06:02.742Z,1006.21
2022-09-04T00:07:03.087Z,1006.19
2022-09-04T00:08:03.031Z,1006.20
2022-09-04T00:09:02.869Z,1006.19
2022-09-04T00:10:03.080Z,1006.20
2022-09-04T00:11:02.911Z,1006.22
2022-09-04T00:12:03.423Z,1006.22
2022-09-04T00:13:02.991Z,1006.22
2022-09-04T00:14:03.484Z,1006.24
2022-09-04T00:15:03.158Z,1006.28
2022-09-04T00:16:02.946Z,1006.25
2022-09-04T00:17:03.547Z,1006.24
2022-09-04T00:18:03.118Z,1006.24
2022-09-04T00:19:02.939Z,1006.27
2022-09-04T00:20:03.495Z,1006.25
2022-09-04T00:21:03.026Z,1006.26
2022-09-04T00:22:03.595Z,1006.26
2022-09-04T00:23:03.211Z,1006.27
2022-09-04T00:24:03.564Z,1006.27
2022-09-04T00:25:03.128Z,1006.30
2022-09-04T00:26:03.628Z,1006.29
2022-09-04T00:27:02.968Z,1006.28
2022-09-04T00:28:02.493Z,1006.25
2022-09-04T00:29:02.955Z,1006.27
2022-09-04T00:30:02.522Z,1006.27
2022-09-04T00:31:02.382Z,1006.29
2022-09-04T00:32:03.582Z,1006.28
2022-09-04T00:33:03.839Z,1006.32
2022-09-04T00:34:03.456Z,1006.33
2022-09-04T00:35:03.541Z,1006.33
2022-09-04T00:36:03.365Z,1006.32
2022-09-04T00:37:03.891Z,1006.31
2022-09-04T00:38:03.466Z,1006.32
2022-09-04T00:39:03.283Z,1006.31
2022-09-04T00:40:03.547Z,1006.31
2022-09-04T00:41:03.400Z,1006.32
2022-09-04T00:42:03.911Z,1006.27
2022-09-04T00:43:03.556Z,1006.31
2022-09-04T00:44:03.375Z,1006.31
2022-09-04T00:45:03.890Z,1006.29
2022-09-04T00:46:03.823Z,1006.31
2022-09-04T00:47:02.544Z,1006.32
2022-09-04T00:48:03.158Z,1006.35
2022-09-04T00:49:03.168Z,1006.37
2022-09-04T00:50:02.726Z,1006.36
2022-09-04T00:51:03.034Z,1006.37
2022-09-04T00:52:02.960Z,1006.37
2022-09-04T00:53:02.892Z,1006.36
2022-09-04T00:54:03.230Z,1006.40
2022-09-04T00:55:03.049Z,1006.40
2022-09-04T00:56:02.943Z,1006.40
2022-09-04T00:57:02.577Z,1006.37
2022-09-04T00:58:03.116Z,1006.40
2022-09-04T00:59:02.681Z,1006.42
2022-09-04T01:00:02.500Z,1006.42
2022-09-04T01:01:02.636Z,1006.44
2022-09-04T01:02:03.986Z,1006.44
2022-09-04T01:03:03.619Z,1006.46
2022-09-04T01:04:03.410Z,1006.49
2022-09-04T01:05:03.209Z,1006.47
2022-09-04T01:06:03.697Z,1006.48
2022-09-04T01:07:02.673Z,1006.48
2022-09-04T01:08:02.552Z,1006.48
2022-09-04T01:09:03.060Z,1006.48
2022-09-04T01:10:02.621Z,1006.48
2022-09-04T01:11:02.570Z,1006.47
2022-09-04T01:12:03.110Z,1006.48
2022-09-04T01:13:02.980Z,1006.44
2022-09-04T01:14:02.991Z,1006.48
2022-09-04T01:15:03.354Z,1006.48
2022-09-04T01:16:03.305Z,1006.50
2022-09-04T01:17:03.088Z,1006.52
2022-09-04T01:18:03.051Z,1006.53
2022-09-04T01:19:03.612Z,1006.52
2022-09-04T01:20:03.242Z,1006.53
2022-09-04T01:21:03.184Z,1006.53
2022-09-04T01:22:02.775Z,1006.53
2022-09-04T01:23:02.616Z,1006.52
2022-09-04T01:24:03.157Z,1006.52
2022-09-04T01:25:02.747Z,1006.53
2022-09-04T01:26:03.097Z,1006.49
2022-09-04T01:27:02.956Z,1006.52
2022-09-04T01:28:02.896Z,1006.50
2022-09-04T01:29:03.343Z,1006.50
2022-09-04T01:30:02.934Z,1006.52
2022-09-04T01:31:02.764Z,1006.52
2022-09-04T01:32:03.318Z,1006.49
2022-09-04T01:33:03.214Z,1006.52
2022-09-04T01:34:03.618Z,1006.51
2022-09-04T01:35:03.478Z,1006.56
2022-09-04T01:36:03.336Z,1006.53
2022-09-04T01:37:02.724Z,1006.54
2022-09-04T01:38:03.257Z,1006.53
2022-09-04T01:39:03.058Z,1006.54
2022-09-04T01:40:03.054Z,1006.52
2022-09-04T01:41:02.942Z,1006.58
2022-09-04T01:42:03.476Z,1006.52
2022-09-04T01:43:03.475Z,1006.55
2022-09-04T01:44:03.322Z,1006.61
2022-09-04T01:45:03.299Z,1006.58
2022-09-04T01:46:03.290Z,1006.62
2022-09-04T01:47:02.952Z,1006.62
2022-09-04T01:48:02.799Z,1006.62
2022-09-04T01:49:02.811Z,1006.66
2022-09-04T01:50:02.650Z,1006.66
2022-09-04T01:51:03.182Z,1006.67
2022-09-04T01:52:03.464Z,1006.67
2022-09-04T01:53:03.297Z,1006.70
2022-09-04T01:54:03.277Z,1006.73
2022-09-04T01:55:03.823Z,1006.75
2022-09-04T01:56:03.313Z,1006.73
2022-09-04T01:57:02.939Z,1006.76
2022-09-04T01:58:02.793Z,1006.73
2022-09-04T01:59:02.868Z,1006.72
2022-09-04T02:00:02.747Z,1006.75
2022-09-04T02:01:02.897Z,1006.75
2022-09-04T02:02:02.487Z,1006.78
2022-09-04T02:03:02.415Z,1006.78
2022-09-04T02:04:02.323Z,1006.78
2022-09-04T02:05:06.310Z,1006.84
2022-09-04T02:06:02.020Z,1006.82
2022-09-04T02:07:02.468Z,1006.81
2022-09-04T02:08:02.308Z,1006.85
2022-09-04T02:09:02.613Z,1006.85
2022-09-04T02:10:02.477Z,1006.86
2022-09-04T02:11:02.533Z,1006.84
2022-09-04T02:12:02.148Z,1006.87
2022-09-04T02:13:02.075Z,1006.89
2022-09-04T02:14:01.932Z,1006.90
2022-09-04T02:15:01.869Z,1006.90
2022-09-04T02:16:01.983Z,1006.89
2022-09-04T02:17:02.695Z,1006.91
2022-09-04T02:18:02.424Z,1006.90
2022-09-04T02:19:02.241Z,1006.90
2022-09-04T02:20:02.218Z,1006.88
2022-09-04T02:21:02.805Z,1006.92
2022-09-04T02:22:02.142Z,1006.93
2022-09-04T02:23:01.983Z,1006.97
2022-09-04T02:24:02.053Z,1006.93
2022-09-04T02:25:01.922Z,1006.94
2022-09-04T02:26:01.783Z,1006.94
2022-09-04T02:27:02.522Z,1006.92
2022-09-04T02:28:02.317Z,1006.93
2022-09-04T02:29:02.244Z,1006.94
2022-09-04T02:30:02.186Z,1006.98
2022-09-04T02:31:02.015Z,1006.97
2022-09-04T02:32:02.671Z,1006.99
2022-09-04T02:33:02.113Z,1006.97
2022-09-04T02:34:02.161Z,1006.98
2022-09-04T02:35:02.063Z,1007.00
2022-09-04T02:36:02.665Z,1007.00
2022-09-04T02:37:03.019Z,1007.04
2022-09-04T02:38:03.210Z,1007.06
2022-09-04T02:39:02.905Z,1007.07
2022-09-04T02:40:02.748Z,1007.10
2022-09-04T02:41:02.733Z,1007.05
2022-09-04T02:42:01.753Z,1007.06
2022-09-04T02:43:02.280Z,1007.09
2022-09-04T02:44:02.078Z,1007.09
2022-09-04T02:45:02.007Z,1007.10
2022-09-04T02:46:01.905Z,1007.12
2022-09-04T02:47:02.490Z,1007.13
2022-09-04T02:48:02.256Z,1007.13
2022-09-04T02:49:02.376Z,1007.10
2022-09-04T02:50:02.333Z,1007.12
2022-09-04T02:51:02.266Z,1007.14
2022-09-04T02:52:02.913Z,1007.11
2022-09-04T02:53:02.522Z,1007.16
2022-09-04T02:54:02.350Z,1007.17
2022-09-04T02:55:02.881Z,1007.20
2022-09-04T02:56:02.736Z,1007.17
2022-09-04T02:57:02.362Z,1007.20
2022-09-04T02:58:01.979Z,1007.21
2022-09-04T02:59:01.849Z,1007.17
2022-09-04T03:00:02.336Z,1007.18
2022-09-04T03:01:02.114Z,1007.16
2022-09-04T03:02:03.492Z,1007.16
2022-09-04T03:03:03.620Z,1007.14
2022-09-04T03:04:03.268Z,1007.13
2022-09-04T03:05:03.122Z,1007.10
2022-09-04T03:06:03.680Z,1007.10
2022-09-04T03:07:02.548Z,1007.11
2022-09-04T03:08:02.502Z,1007.10
2022-09-04T03:09:02.588Z,1007.07
2022-09-04T03:10:02.557Z,1007.10
2022-09-04T03:11:02.454Z,1007.07
2022-09-04T03:12:03.684Z,1007.06
2022-09-04T03:13:03.280Z,1007.06
2022-09-04T03:14:03.035Z,1007.06
2022-09-04T03:15:03.517Z,1007.07
2022-09-04T03:16:03.447Z,1007.09
2022-09-04T03:17:02.445Z,1007.08
2022-09-04T03:18:02.386Z,1007.10
2022-09-04T03:19:02.989Z,1007.10
2022-09-04T03:20:02.719Z,1007.12
2022-09-04T03:21:02.631Z,1007.18
2022-09-04T03:22:02.522Z,1007.16
2022-09-04T03:23:02.853Z,1007.16
2022-09-04T03:24:02.745Z,1007.14
2022-09-04T03:25:02.603Z,1007.20
2022-09-04T03:26:03.126Z,1007.15
2022-09-04T03:27:02.911Z,1007.18
2022-09-04T03:28:03.472Z,1007.19
2022-09-04T03:29:03.045Z,1007.19
2022-09-04T03:30:02.937Z,1007.21
2022-09-04T03:31:03.484Z,1007.18
2022-09-04T03:32:15.045Z,1007.16
2022-09-04T03:33:03.536Z,1007.19
2022-09-04T03:34:03.167Z,1007.18
2022-09-04T03:35:03.453Z,1007.22
2022-09-04T03:36:03.320Z,1007.21
2022-09-04T03:37:03.128Z,1007.24
2022-09-04T03:38:03.828Z,1007.27
2022-09-04T03:39:03.424Z,1007.23
2022-09-04T03:40:03.607Z,1007.24
2022-09-04T03:41:03.425Z,1007.27
2022-09-04T03:42:02.753Z,1007.28
2022-09-04T03:43:02.687Z,1007.27
2022-09-04T03:44:02.524Z,1007.29
2022-09-04T03:45:02.357Z,1007.29
2022-09-04T03:46:02.890Z,1007.30
2022-09-04T03:47:02.774Z,1007.30
2022-09-04T03:48:02.766Z,1007.31
2022-09-04T03:49:02.633Z,1007.29
2022-09-04T03:50:02.499Z,1007.30
2022-09-04T03:51:02.930Z,1007.31
2022-09-04T03:52:02.822Z,1007.32
2022-09-04T03:53:03.317Z,1007.32
2022-09-04T03:54:03.013Z,1007.32
2022-09-04T03:55:02.950Z,1007.29
2022-09-04T03:56:02.859Z,1007.30
2022-09-04T03:57:02.505Z,1007.34
2022-09-04T03:58:02.487Z,1007.33
2022-09-04T03:59:02.442Z,1007.31
2022-09-04T04:00:02.412Z,1007.35
2022-09-04T04:01:02.637Z,1007.32
2022-09-04T04:02:02.599Z,1007.33
2022-09-04T04:03:02.544Z,1007.34
2022-09-04T04:04:02.586Z,1007.35
2022-09-04T04:05:02.806Z,1007.37
2022-09-04T04:06:02.765Z,1007.40
2022-09-04T04:07:02.753Z,1007.37
2022-09-04T04:08:02.573Z,1007.41
2022-09-04T04:09:02.523Z,1007.44
2022-09-04T04:10:03.031Z,1007.43
2022-09-04T04:11:03.011Z,1007.44
2022-09-04T04:12:02.870Z,1007.42
2022-09-04T04:13:03.358Z,1007.47
2022-09-04T04:14:02.968Z,1007.48
2022-09-04T04:15:02.890Z,1007.48
2022-09-04T04:16:03.499Z,1007.50
2022-09-04T04:17:03.096Z,1007.50
2022-09-04T04:18:02.981Z,1007.51
2022-09-04T04:19:02.890Z,1007.57
2022-09-04T04:20:03.530Z,1007.59
2022-09-04T04:21:03.085Z,1007.57
2022-09-04T04:22:02.681Z,1007.57
2022-09-04T04:23:02.628Z,1007.58
2022-09-04T04:24:02.519Z,1007.61
2022-09-04T04:25:03.140Z,1007.64
2022-09-04T04:26:02.805Z,1007.66
2022-09-04T04:27:03.415Z,1007.61
2022-09-04T04:28:03.203Z,1007.63
2022-09-04T04:29:03.814Z,1007.62
2022-09-04T04:30:03.527Z,1007.64
2022-09-04T04:31:03.829Z,1007.67
2022-09-04T04:32:02.631Z,1007.67
2022-09-04T04:33:02.795Z,1007.68
2022-09-04T04:34:02.842Z,1007.69
2022-09-04T04:35:03.043Z,1007.70
2022-09-04T04:36:02.813Z,1007.68
2022-09-04T04:37:02.763Z,1007.66
2022-09-04T04:38:02.820Z,1007.69
2022-09-04T04:39:02.721Z,1007.68
2022-09-04T04:40:02.535Z,1007.69
2022-09-04T04:41:03.094Z,1007.71
2022-09-04T04:42:03.171Z,1007.70
2022-09-04T04:43:02.868Z,1007.71
2022-09-04T04:44:02.859Z,1007.72
2022-09-04T04:45:02.865Z,1007.71
2022-09-04T04:46:02.891Z,1007.74
2022-09-04T04:47:02.837Z,1007.73
2022-09-04T04:48:02.848Z,1007.77
2022-09-04T04:49:02.865Z,1007.79
2022-09-04T04:50:02.913Z,1007.76
2022-09-04T04:51:02.900Z,1007.76
2022-09-04T04:52:03.117Z,1007.77
2022-09-04T04:53:03.160Z,1007.79
2022-09-04T04:54:05.320Z,1007.83
2022-09-04T04:55:02.916Z,1007.85
2022-09-04T04:56:02.875Z,1007.86
2022-09-04T04:57:03.473Z,1007.87
2022-09-04T04:58:03.429Z,1007.89
2022-09-04T04:59:03.201Z,1007.90
2022-09-04T05:00:03.213Z,1007.89
2022-09-04T05:01:03.713Z,1007.88
2022-09-04T05:02:02.314Z,1007.90
2022-09-04T05:03:02.289Z,1007.91
2022-09-04T05:04:01.879Z,1007.94
2022-09-04T05:05:01.715Z,1007.95
2022-09-04T05:06:01.951Z,1007.97
2022-09-04T05:07:02.512Z,1007.96
2022-09-04T05:08:07.584Z,1008.00
2022-09-04T05:09:02.679Z,1008.01
2022-09-04T05:10:02.233Z,1008.04
2022-09-04T05:11:02.210Z,1008.03
2022-09-04T05:12:02.901Z,1008.05
2022-09-04T05:13:02.920Z,1008.06
2022-09-04T05:14:02.808Z,1008.10
2022-09-04T05:15:02.783Z,1008.12
2022-09-04T05:16:09.278Z,1008.12
2022-09-04T05:17:02.950Z,1008.12
2022-09-04T05:18:02.996Z,1008.13
2022-09-04T05:19:02.854Z,1008.13
2022-09-04T05:20:02.495Z,1008.12
2022-09-04T05:21:02.543Z,1008.13
2022-09-04T05:22:02.309Z,1008.14
2022-09-04T05:23:02.482Z,1008.15
2022-09-04T05:24:02.207Z,1008.19
2022-09-04T05:25:02.095Z,1008.21
2022-09-04T05:26:01.984Z,1008.25
2022-09-04T05:27:02.631Z,1008.21
2022-09-04T05:28:02.689Z,1008.25
2022-09-04T05:29:02.735Z,1008.24
2022-09-04T05:30:02.747Z,1008.27
2022-09-04T05:31:02.727Z,1008.26
2022-09-04T05:32:02.262Z,1008.31
2022-09-04T05:33:02.204Z,1008.33
2022-09-04T05:34:02.208Z,1008.33
2022-09-04T05:35:02.276Z,1008.35
2022-09-04T05:36:02.201Z,1008.40
2022-09-04T05:37:02.900Z,1008.42
2022-09-04T05:38:02.631Z,1008.42
2022-09-04T05:39:02.702Z,1008.50
2022-09-04T05:40:02.446Z,1008.52
2022-09-04T05:41:02.568Z,1008.48
2022-09-04T05:42:05.868Z,1008.51
2022-09-04T05:43:01.829Z,1008.53
2022-09-04T05:44:01.757Z,1008.56
2022-09-04T05:45:01.894Z,1008.59
2022-09-04T05:46:02.468Z,1008.61
2022-09-04T05:47:02.377Z,1008.63
2022-09-04T05:48:02.480Z,1008.68
2022-09-04T05:49:02.415Z,1008.65
2022-09-04T05:50:02.317Z,1008.65
2022-09-04T05:51:02.413Z,1008.69
2022-09-04T05:52:02.742Z,1008.68
2022-09-04T05:53:02.601Z,1008.71
2022-09-04T05:54:02.928Z,1008.71
2022-09-04T05:55:02.840Z,1008.71
2022-09-04T05:56:02.922Z,1008.74
2022-09-04T05:57:02.686Z,1008.74
2022-09-04T05:58:02.672Z,1008.73
2022-09-04T05:59:02.435Z,1008.70
2022-09-04T06:00:02.467Z,1008.73
2022-09-04T06:01:02.600Z,1008.71
2022-09-04T06:02:03.107Z,1008.70
2022-09-04T06:03:02.547Z,1008.69
2022-09-04T06:04:02.668Z,1008.74
2022-09-04T06:05:02.715Z,1008.73
2022-09-04T06:06:02.703Z,1008.76
2022-09-04T06:07:03.032Z,1008.72
2022-09-04T06:08:03.116Z,1008.75
2022-09-04T06:09:03.167Z,1008.76
2022-09-04T06:10:03.140Z,1008.76
2022-09-04T06:11:03.006Z,1008.79
2022-09-04T06:12:03.701Z,1008.84
2022-09-04T06:13:03.269Z,1008.82
2022-09-04T06:14:03.313Z,1008.85
2022-09-04T06:15:03.208Z,1008.83
2022-09-04T06:16:03.408Z,1008.85
2022-09-04T06:17:02.539Z,1008.84
2022-09-04T06:18:03.122Z,1008.84
2022-09-04T06:19:02.768Z,1008.86
2022-09-04T06:20:02.804Z,1008.86
2022-09-04T06:21:03.071Z,1008.87
2022-09-04T06:22:03.288Z,1008.87
2022-09-04T06:23:03.322Z,1008.87
2022-09-04T06:24:03.342Z,1008.87
2022-09-04T06:25:03.433Z,1008.86
2022-09-04T06:26:03.402Z,1008.86
2022-09-04T06:27:02.398Z,1008.88
2022-09-04T06:28:02.399Z,1008.92
2022-09-04T06:29:05.716Z,1008.88
2022-09-04T06:30:03.027Z,1008.88
2022-09-04T06:31:02.891Z,1008.89
2022-09-04T06:32:02.912Z,1008.87
2022-09-04T06:33:02.957Z,1008.91
2022-09-04T06:34:02.941Z,1008.93
2022-09-04T06:35:02.871Z,1008.96
2022-09-04T06:36:03.135Z,1009.00
2022-09-04T06:37:03.248Z,1009.00
2022-09-04T06:38:03.627Z,1009.04
2022-09-04T06:39:03.573Z,1009.07
2022-09-04T06:40:03.249Z,1009.09
2022-09-04T06:41:03.396Z,1009.09
2022-09-04T06:42:03.393Z,1009.12
2022-09-04T06:43:03.884Z,1009.10
2022-09-04T06:44:03.775Z,1009.08
2022-09-04T06:45:03.315Z,1009.10
2022-09-04T06:46:03.640Z,1009.15
2022-09-04T06:47:03.157Z,1009.11
2022-09-04T06:48:03.342Z,1009.13
2022-09-04T06:49:03.361Z,1009.13
2022-09-04T06:50:03.499Z,1009.10
2022-09-04T06:51:03.153Z,1009.09
2022-09-04T06:52:03.543Z,1009.10
2022-09-04T06:53:04.423Z,1009.11
2022-09-04T06:54:03.409Z,1009.10
2022-09-04T06:55:03.536Z,1009.10
2022-09-04T06:56:03.780Z,1009.09
2022-09-04T06:57:02.806Z,1009.14
2022-09-04T06:58:02.939Z,1009.12
2022-09-04T06:59:02.953Z,1009.13
2022-09-04T07:00:03.072Z,1009.15
2022-09-04T07:01:03.172Z,1009.17
2022-09-04T07:02:02.434Z,1009.17
2022-09-04T07:03:02.555Z,1009.15
2022-09-04T07:04:02.637Z,1009.14
2022-09-04T07:05:02.418Z,1009.18
2022-09-04T07:06:02.549Z,1009.19
2022-09-04T07:07:02.619Z,1009.19
2022-09-04T07:08:02.838Z,1009.18
2022-09-04T07:09:02.924Z,1009.18
2022-09-04T07:10:04.292Z,1009.20
2022-09-04T07:11:02.747Z,1009.22
2022-09-04T07:12:03.055Z,1009.23
2022-09-04T07:13:03.187Z,1009.26
2022-09-04T07:14:03.357Z,1009.25
2022-09-04T07:15:03.192Z,1009.28
2022-09-04T07:16:03.262Z,1009.30
2022-09-04T07:17:03.164Z,1009.31
2022-09-04T07:18:03.336Z,1009.31
2022-09-04T07:19:03.450Z,1009.33
2022-09-04T07:20:03.071Z,1009.31
2022-09-04T07:21:03.393Z,1009.27
2022-09-04T07:22:02.283Z,1009.33
2022-09-04T07:23:02.290Z,1009.33
2022-09-04T07:24:02.488Z,1009.33
2022-09-04T07:25:02.443Z,1009.33
2022-09-04T07:26:02.431Z,1009.35
2022-09-04T07:27:02.466Z,1009.37
2022-09-04T07:28:02.581Z,1009.39
2022-09-04T07:29:02.684Z,1009.40
2022-09-04T07:30:02.780Z,1009.41
2022-09-04T07:31:02.718Z,1009.40
2022-09-04T07:32:02.869Z,1009.40
2022-09-04T07:33:03.057Z,1009.41
2022-09-04T07:34:02.758Z,1009.42
2022-09-04T07:35:02.843Z,1009.44
2022-09-04T07:36:03.096Z,1009.41
2022-09-04T07:37:03.066Z,1009.48
2022-09-04T07:38:02.907Z,1009.46
2022-09-04T07:39:03.000Z,1009.49
2022-09-04T07:40:03.180Z,1009.50
2022-09-04T07:41:03.172Z,1009.51
2022-09-04T07:42:03.080Z,1009.51
2022-09-04T07:43:03.179Z,1009.48
2022-09-04T07:44:03.127Z,1009.47
2022-09-04T07:45:03.187Z,1009.47
2022-09-04T07:46:03.234Z,1009.47
2022-09-04T07:47:03.212Z,1009.45
2022-09-04T07:48:03.260Z,1009.45
2022-09-04T07:49:02.999Z,1009.46
2022-09-04T07:50:03.113Z,1009.49
2022-09-04T07:51:03.235Z,1009.47
2022-09-04T07:52:02.464Z,1009.47
2022-09-04T07:53:04.175Z,1009.48
2022-09-04T07:54:02.584Z,1009.51
2022-09-04T07:55:02.507Z,1009.50
2022-09-04T07:56:02.497Z,1009.52
2022-09-04T07:57:02.527Z,1009.53
2022-09-04T07:58:02.295Z,1009.54
2022-09-04T07:59:02.285Z,1009.51
2022-09-04T08:00:02.316Z,1009.54
2022-09-04T08:01:02.554Z,1009.59
2022-09-04T08:02:02.763Z,1009.57
2022-09-04T08:03:02.450Z,1009.56
2022-09-04T08:04:02.419Z,1009.58
2022-09-04T08:05:02.932Z,1009.62
2022-09-04T08:06:02.898Z,1009.62
2022-09-04T08:07:03.057Z,1009.64
2022-09-04T08:08:03.195Z,1009.67
2022-09-04T08:09:02.866Z,1009.71
2022-09-04T08:10:02.856Z,1009.69
2022-09-04T08:11:02.910Z,1009.70
2022-09-04T08:12:02.662Z,1009.66
2022-09-04T08:13:02.823Z,1009.66
2022-09-04T08:14:02.897Z,1009.67
2022-09-04T08:15:02.701Z,1009.67
2022-09-04T08:16:02.734Z,1009.67
2022-09-04T08:17:02.842Z,1009.65
2022-09-04T08:18:02.900Z,1009.66
2022-09-04T08:19:02.874Z,1009.63
2022-09-04T08:20:02.960Z,1009.65
2022-09-04T08:21:02.511Z,1009.63
2022-09-04T08:22:03.287Z,1009.67
2022-09-04T08:23:03.302Z,1009.67
2022-09-04T08:24:03.381Z,1009.72
2022-09-04T08:25:03.434Z,1009.73
2022-09-04T08:26:03.438Z,1009.69
2022-09-04T08:27:03.390Z,1009.74
2022-09-04T08:28:03.321Z,1009.74
2022-09-04T08:29:03.394Z,1009.75
2022-09-04T08:30:03.221Z,1009.78
2022-09-04T08:31:03.842Z,1009.81
2022-09-04T08:32:02.912Z,1009.79
2022-09-04T08:33:02.831Z,1009.82
2022-09-04T08:34:02.970Z,1009.82
2022-09-04T08:35:02.440Z,1009.83
2022-09-04T08:36:02.606Z,1009.83
2022-09-04T08:37:03.460Z,1009.83
2022-09-04T08:38:03.317Z,1009.83
2022-09-04T08:39:06.926Z,1009.85
2022-09-04T08:40:03.602Z,1009.88
2022-09-04T08:41:03.475Z,1009.91
2022-09-04T08:42:03.572Z,1009.85
2022-09-04T08:43:03.672Z,1009.89
2022-09-04T08:44:03.572Z,1009.91
2022-09-04T08:45:03.665Z,1009.90
2022-09-04T08:46:03.738Z,1009.89
2022-09-04T08:47:03.263Z,1009.89
2022-09-04T08:48:03.291Z,1009.91
2022-09-04T08:49:03.064Z,1009.94
2022-09-04T08:50:03.077Z,1009.91
2022-09-04T08:51:03.349Z,1009.94
2022-09-04T08:52:03.781Z,1009.93
2022-09-04T08:53:04.178Z,1009.95
2022-09-04T08:54:03.337Z,1009.92
2022-09-04T08:55:03.433Z,1009.94
2022-09-04T08:56:03.456Z,1009.96
2022-09-04T08:57:03.188Z,1009.95
2022-09-04T08:58:03.273Z,1009.94
2022-09-04T08:59:03.156Z,1009.94
2022-09-04T09:00:03.248Z,1009.92
2022-09-04T09:01:03.238Z,1009.94
2022-09-04T09:02:03.016Z,1009.94
2022-09-04T09:03:02.801Z,1009.94
2022-09-04T09:04:02.880Z,1009.92
2022-09-04T09:05:02.864Z,1009.94
2022-09-04T09:06:02.975Z,1009.95
2022-09-04T09:07:03.427Z,1009.96
2022-09-04T09:08:03.258Z,1009.94
2022-09-04T09:09:03.341Z,1009.95
2022-09-04T09:10:03.067Z,1009.93
2022-09-04T09:11:03.265Z,1009.91
2022-09-04T09:12:03.110Z,1009.94
2022-09-04T09:13:02.849Z,1009.93
2022-09-04T09:14:02.944Z,1009.89
2022-09-04T09:15:03.026Z,1009.89
2022-09-04T09:16:03.022Z,1009.92
2022-09-04T09:17:03.694Z,1009.91
2022-09-04T09:18:03.546Z,1009.92
2022-09-04T09:19:03.541Z,1009.91
2022-09-04T09:20:03.613Z,1009.92
2022-09-04T09:21:03.339Z,1009.91
2022-09-04T09:22:02.482Z,1009.93
2022-09-04T09:23:02.379Z,1009.91
2022-09-04T09:24:02.538Z,1009.91
2022-09-04T09:25:02.626Z,1009.90
2022-09-04T09:26:02.684Z,1009.95
2022-09-04T09:27:03.371Z,1009.94
2022-09-04T09:28:03.207Z,1009.94
2022-09-04T09:29:03.007Z,1009.93
2022-09-04T09:30:02.947Z,1009.95
2022-09-04T09:31:03.060Z,1009.95
2022-09-04T09:32:03.958Z,1009.95
2022-09-04T09:33:02.404Z,1009.95
2022-09-04T09:34:02.582Z,1009.93
2022-09-04T09:35:02.791Z,1009.93
2022-09-04T09:36:02.816Z,1009.89
2022-09-04T09:37:02.991Z,1009.91
2022-09-04T09:38:04.666Z,1009.89
2022-09-04T09:39:02.878Z,1009.88
2022-09-04T09:40:03.102Z,1009.89
2022-09-04T09:41:03.266Z,1009.89
2022-09-04T09:42:02.433Z,1009.90
2022-09-04T09:43:02.755Z,1009.88
2022-09-04T09:44:02.920Z,1009.89
2022-09-04T09:45:02.856Z,1009.87
2022-09-04T09:46:02.520Z,1009.90
2022-09-04T09:47:02.717Z,1009.87
2022-09-04T09:48:02.865Z,1009.88
2022-09-04T09:49:03.050Z,1009.88
2022-09-04T09:50:02.766Z,1009.87
2022-09-04T09:51:02.912Z,1009.87
2022-09-04T09:52:03.255Z,1009.89
2022-09-04T09:53:03.414Z,1009.87
2022-09-04T09:54:03.469Z,1009.82
2022-09-04T09:55:03.444Z,1009.83
2022-09-04T09:56:03.535Z,1009.83
2022-09-04T09:57:02.744Z,1009.83
2022-09-04T09:58:02.615Z,1009.82
2022-09-04T09:59:03.046Z,1009.82
2022-09-04T10:00:03.179Z,1009.83
2022-09-04T10:01:07.670Z,1009.81
2022-09-04T10:02:02.541Z,1009.81
2022-09-04T10:03:02.693Z,1009.82
2022-09-04T10:04:02.807Z,1009.77
2022-09-04T10:05:02.269Z,1009.75
2022-09-04T10:06:02.390Z,1009.74
2022-09-04T10:07:02.571Z,1009.71
2022-09-04T10:08:02.750Z,1009.75
2022-09-04T10:09:04.974Z,1009.73
2022-09-04T10:10:02.859Z,1009.73
2022-09-04T10:11:02.888Z,1009.72
2022-09-04T10:12:02.875Z,1009.75
2022-09-04T10:13:02.844Z,1009.77
2022-09-04T10:14:02.924Z,1009.75
2022-09-04T10:15:03.068Z,1009.71
2022-09-04T10:16:03.030Z,1009.73
2022-09-04T10:17:03.170Z,1009.72
2022-09-04T10:18:03.156Z,1009.68
2022-09-04T10:19:03.149Z,1009.67
2022-09-04T10:20:03.164Z,1009.69
2022-09-04T10:21:03.178Z,1009.67
2022-09-04T10:22:03.330Z,1009.70
2022-09-04T10:23:03.625Z,1009.68
2022-09-04T10:24:03.110Z,1009.71
2022-09-04T10:25:03.192Z,1009.71
2022-09-04T10:26:03.193Z,1009.71
2022-09-04T10:27:03.068Z,1009.72
2022-09-04T10:28:03.047Z,1009.75
2022-09-04T10:29:03.030Z,1009.74
2022-09-04T10:30:03.149Z,1009.73
2022-09-04T10:31:03.169Z,1009.76
2022-09-04T10:32:03.302Z,1009.75
2022-09-04T10:33:05.979Z,1009.77
2022-09-04T10:34:03.541Z,1009.79
2022-09-04T10:35:03.563Z,1009.75
2022-09-04T10:36:03.545Z,1009.75
2022-09-04T10:37:03.506Z,1009.76
2022-09-04T10:38:03.512Z,1009.78
2022-09-04T10:39:03.543Z,1009.75
2022-09-04T10:40:03.742Z,1009.71
2022-09-04T10:41:03.621Z,1009.73
2022-09-04T10:42:02.850Z,1009.69
2022-09-04T10:43:03.025Z,1009.73
2022-09-04T10:44:02.740Z,1009.73
2022-09-04T10:45:02.793Z,1009.71
2022-09-04T10:46:02.810Z,1009.69
2022-09-04T10:47:03.506Z,1009.70
2022-09-04T10:48:03.593Z,1009.65
2022-09-04T10:49:03.366Z,1009.69
2022-09-04T10:50:03.539Z,1009.63
2022-09-04T10:51:03.691Z,1009.63
2022-09-04T10:52:02.849Z,1009.64
2022-09-04T10:53:02.581Z,1009.63
2022-09-04T10:54:07.303Z,1009.66
2022-09-04T10:55:02.749Z,1009.62
2022-09-04T10:56:02.909Z,1009.64
2022-09-04T10:57:03.072Z,1009.61
2022-09-04T10:58:03.207Z,1009.60
2022-09-04T10:59:03.329Z,1009.54
2022-09-04T11:00:03.218Z,1009.57
2022-09-04T11:01:03.073Z,1009.57
2022-09-04T11:02:03.205Z,1009.56
2022-09-04T11:03:02.819Z,1009.55
2022-09-04T11:04:02.961Z,1009.58
2022-09-04T11:05:03.233Z,1009.53
2022-09-04T11:06:03.282Z,1009.51
2022-09-04T11:07:02.650Z,1009.50
2022-09-04T11:08:02.818Z,1009.50
2022-09-04T11:09:02.663Z,1009.51
2022-09-04T11:10:02.843Z,1009.50
2022-09-04T11:11:02.608Z,1009.49
2022-09-04T11:12:02.430Z,1009.54
2022-09-04T11:13:02.371Z,1009.57
2022-09-04T11:14:02.426Z,1009.60
2022-09-04T11:15:02.668Z,1009.59
2022-09-04T11:16:02.590Z,1009.59
2022-09-04T11:17:03.098Z,1009.55
2022-09-04T11:18:03.248Z,1009.53
2022-09-04T11:19:02.956Z,1009.53
2022-09-04T11:20:02.755Z,1009.49
2022-09-04T11:21:02.891Z,1009.49
2022-09-04T11:22:02.718Z,1009.52
2022-09-04T11:23:02.492Z,1009.48
2022-09-04T11:24:02.231Z,1009.49
2022-09-04T11:25:02.302Z,1009.50
2022-09-04T11:26:02.805Z,1009.52
2022-09-04T11:27:07.947Z,1009.48
2022-09-04T11:28:03.497Z,1009.48
2022-09-04T11:29:03.433Z,1009.49
2022-09-04T11:30:03.361Z,1009.52
2022-09-04T11:31:03.362Z,1009.50
2022-09-04T11:32:03.573Z,1009.52
2022-09-04T11:33:03.530Z,1009.52
2022-09-04T11:34:03.159Z,1009.52
2022-09-04T11:35:03.310Z,1009.51
2022-09-04T11:36:03.308Z,1009.50
2022-09-04T11:37:03.222Z,1009.49
2022-09-04T11:38:02.787Z,1009.48
2022-09-04T11:39:02.630Z,1009.48
2022-09-04T11:40:02.864Z,1009.49
2022-09-04T11:41:02.954Z,1009.46
2022-09-04T11:42:02.164Z,1009.47
2022-09-04T11:43:02.211Z,1009.48
2022-09-04T11:44:02.344Z,1009.48
2022-09-04T11:45:02.447Z,1009.47
2022-09-04T11:46:02.562Z,1009.47
2022-09-04T11:47:02.448Z,1009.50
2022-09-04T11:48:02.651Z,1009.49
2022-09-04T11:49:02.822Z,1009.48
2022-09-04T11:50:02.962Z,1009.48
2022-09-04T11:51:03.085Z,1009.51
2022-09-04T11:52:02.893Z,1009.47
2022-09-04T11:53:03.118Z,1009.50
2022-09-04T11:54:03.511Z,1009.50
2022-09-04T11:55:03.445Z,1009.53
2022-09-04T11:56:03.568Z,1009.54
2022-09-04T11:57:03.449Z,1009.55
2022-09-04T11:58:02.653Z,1009.60
2022-09-04T11:59:02.790Z,1009.59
2022-09-04T12:00:02.915Z,1009.59
2022-09-04T12:01:03.110Z,1009.60
2022-09-04T12:02:02.943Z,1009.58
2022-09-04T12:03:02.140Z,1009.58
2022-09-04T12:04:02.344Z,1009.61
2022-09-04T12:05:02.481Z,1009.60